createdAt,value
2018-03-14T00:01:09.856Z,5.90
2018-03-14T00:03:37.458Z,5.90
2018-03-14T00:06:05.789Z,6.00
2018-03-14T00:08:33.369Z,5.90
2018-03-14T00:11:00.987Z,5.90
2018-03-14T00:13:28.556Z,5.90
2018-03-14T00:15:56.156Z,6.00
2018-03-14T00:18:23.768Z,5.90
2018-03-14T00:20:51.365Z,5.90
2018-03-14T00:23:18.952Z,5.90
2018-03-14T00:25:47.291Z,5.90
2018-03-14T00:28:14.861Z,5.90
2018-03-14T00:30:42.514Z,5.90
2018-03-14T00:33:10.101Z,5.90
2018-03-14T00:35:37.664Z,5.90
2018-03-14T00:38:05.224Z,5.90
2018-03-14T00:40:32.803Z,5.90
2018-03-14T00:43:01.152Z,5.90
2018-03-14T00:45:28.733Z,5.90
2018-03-14T00:47:57.197Z,5.90
2018-03-14T00:50:24.771Z,5.90
2018-03-14T00:52:53.273Z,5.90
2018-03-14T00:55:21.642Z,5.90
2018-03-14T00:57:49.960Z,5.90
2018-03-14T01:00:17.558Z,5.90
2018-03-14T01:02:45.260Z,5.90
2018-03-14T01:05:12.833Z,5.90
2018-03-14T01:07:40.413Z,5.90
2018-03-14T01:10:08.047Z,5.90
2018-03-14T01:12:35.687Z,5.90
2018-03-14T01:15:03.213Z,5.90
2018-03-14T01:17:30.782Z,5.90
2018-03-14T01:19:58.410Z,5.90
2018-03-14T01:22:25.979Z,5.90
2018-03-14T01:24:53.545Z,5.90
2018-03-14T01:27:21.108Z,5.90
2018-03-14T01:29:48.669Z,5.90
2018-03-14T01:32:16.244Z,6.00
2018-03-14T01:34:43.809Z,6.00
2018-03-14T01:37:11.404Z,6.00
2018-03-14T01:39:38.997Z,6.00
2018-03-14T01:42:06.565Z,6.00
2018-03-14T01:44:34.127Z,5.90
2018-03-14T01:47:01.753Z,6.00
2018-03-14T01:49:30.111Z,6.00
2018-03-14T01:51:57.735Z,5.90
2018-03-14T01:54:25.280Z,6.00
2018-03-14T01:56:52.862Z,6.00
2018-03-14T01:59:20.496Z,6.00
2018-03-14T02:01:48.077Z,6.00
2018-03-14T02:04:15.620Z,6.00
2018-03-14T02:06:43.166Z,6.00
2018-03-14T02:09:10.738Z,6.00
2018-03-14T02:11:38.305Z,6.00
2018-03-14T02:14:05.883Z,6.00
2018-03-14T02:16:33.506Z,6.00
2018-03-14T02:19:01.088Z,6.00
2018-03-14T02:21:28.681Z,6.00
2018-03-14T02:23:57.083Z,6.10
2018-03-14T02:26:24.641Z,6.00
2018-03-14T02:28:52.221Z,6.00
2018-03-14T02:31:19.998Z,6.00
2018-03-14T02:33:47.574Z,6.10
2018-03-14T02:36:26.965Z,6.10
2018-03-14T02:38:54.534Z,6.10
2018-03-14T02:41:22.085Z,6.00
2018-03-14T02:43:49.846Z,6.10
2018-03-14T02:46:17.411Z,6.10
2018-03-14T02:48:45.733Z,6.10
2018-03-14T02:51:13.286Z,6.10
2018-03-14T02:53:40.848Z,6.10
2018-03-14T02:56:08.397Z,6.00
2018-03-14T02:58:35.980Z,6.10
2018-03-14T03:01:03.647Z,6.10
2018-03-14T03:03:32.703Z,6.00
2018-03-14T03:06:00.281Z,6.00
2018-03-14T03:08:27.840Z,6.10
2018-03-14T03:10:55.412Z,6.00
2018-03-14T03:13:22.953Z,6.10
2018-03-14T03:15:50.602Z,6.10
2018-03-14T03:18:18.147Z,6.10
2018-03-14T03:20:45.713Z,6.10
2018-03-14T03:23:13.258Z,6.00
2018-03-14T03:25:41.638Z,6.00
2018-03-14T03:28:09.994Z,6.00
2018-03-14T03:30:37.569Z,6.00
2018-03-14T03:33:05.880Z,6.00
2018-03-14T03:35:33.457Z,6.00
2018-03-14T03:38:01.013Z,6.00
2018-03-14T03:40:28.582Z,6.00
2018-03-14T03:42:56.166Z,6.00
2018-03-14T03:45:23.709Z,6.00
2018-03-14T03:47:51.448Z,6.00
2018-03-14T03:50:18.999Z,6.10
2018-03-14T03:52:46.624Z,6.00
2018-03-14T03:55:14.177Z,6.10
2018-03-14T03:57:41.747Z,6.10
2018-03-14T04:00:09.289Z,6.10
2018-03-14T04:02:36.851Z,6.10
2018-03-14T04:05:04.393Z,6.10
2018-03-14T04:07:31.974Z,6.10
2018-03-14T04:09:59.634Z,6.20
2018-03-14T04:12:27.208Z,6.10
2018-03-14T04:14:55.524Z,6.10
2018-03-14T04:17:23.109Z,6.10
2018-03-14T04:19:50.690Z,6.10
2018-03-14T04:22:18.306Z,6.10
2018-03-14T04:24:45.889Z,6.10
2018-03-14T04:27:13.453Z,6.10
2018-03-14T04:29:41.026Z,6.20
2018-03-14T04:32:08.569Z,6.20
2018-03-14T04:34:36.204Z,6.20
2018-03-14T04:37:03.757Z,6.20
2018-03-14T04:39:31.325Z,6.20
2018-03-14T04:41:58.878Z,6.20
2018-03-14T04:44:26.489Z,6.20
2018-03-14T04:46:54.028Z,6.20
2018-03-14T04:49:21.593Z,6.20
2018-03-14T04:51:49.152Z,6.10
2018-03-14T04:54:16.718Z,6.20
2018-03-14T04:56:44.251Z,6.20
2018-03-14T04:59:11.800Z,6.20
2018-03-14T05:01:39.352Z,6.20
2018-03-14T05:04:06.968Z,6.20
2018-03-14T05:06:34.536Z,6.30
2018-03-14T05:09:02.091Z,6.30
2018-03-14T05:11:29.631Z,6.30
2018-03-14T05:13:57.276Z,6.30
2018-03-14T05:16:24.841Z,6.20
2018-03-14T05:18:52.392Z,6.30
2018-03-14T05:21:20.003Z,6.20
2018-03-14T05:23:47.554Z,6.20
2018-03-14T05:26:15.123Z,6.20
2018-03-14T05:28:43.413Z,6.20
2018-03-14T05:31:10.958Z,6.20
2018-03-14T05:33:39.321Z,6.20
2018-03-14T05:36:06.857Z,6.20
2018-03-14T05:38:34.394Z,6.20
2018-03-14T05:41:01.942Z,6.10
2018-03-14T05:43:29.470Z,6.10
2018-03-14T05:45:57.036Z,6.10
2018-03-14T05:48:25.452Z,6.10
2018-03-14T05:50:52.960Z,6.10
2018-03-14T05:53:20.521Z,6.10
2018-03-14T05:55:48.078Z,6.10
2018-03-14T05:58:15.637Z,6.10
2018-03-14T06:00:43.196Z,6.10
2018-03-14T06:03:10.767Z,6.10
2018-03-14T06:05:38.312Z,6.10
2018-03-14T06:08:05.882Z,6.10
2018-03-14T06:10:33.454Z,6.20
2018-03-14T06:13:01.003Z,6.10
2018-03-14T06:15:28.648Z,6.10
2018-03-14T06:17:56.225Z,6.00
2018-03-14T06:20:23.826Z,5.90
2018-03-14T06:22:51.390Z,5.80
2018-03-14T06:25:18.964Z,5.80
2018-03-14T06:27:46.550Z,5.80
2018-03-14T06:30:14.169Z,5.80
2018-03-14T06:32:41.766Z,5.90
2018-03-14T06:35:09.370Z,5.90
2018-03-14T06:37:37.740Z,5.80
2018-03-14T06:40:06.081Z,5.80
2018-03-14T06:42:33.634Z,5.80
2018-03-14T06:45:01.210Z,5.90
2018-03-14T06:47:28.769Z,6.00
2018-03-14T06:49:56.532Z,6.10
2018-03-14T06:52:24.945Z,6.20
2018-03-14T06:54:52.516Z,6.30
2018-03-14T06:57:20.849Z,6.50
2018-03-14T07:00:00.219Z,6.50
2018-03-14T07:05:38.903Z,7.30
2018-03-14T07:08:06.649Z,6.70
2018-03-14T07:10:35.046Z,6.70
2018-03-14T07:13:02.648Z,6.60
2018-03-14T07:15:30.673Z,6.60
2018-03-14T07:17:58.369Z,6.50
2018-03-14T07:20:26.411Z,6.60
2018-03-14T07:22:54.332Z,6.60
2018-03-14T07:25:23.039Z,6.70
2018-03-14T07:27:51.015Z,6.70
2018-03-14T07:30:19.357Z,6.80
2018-03-14T07:32:47.156Z,6.80
2018-03-14T07:35:15.148Z,6.80
2018-03-14T07:37:43.115Z,6.90
2018-03-14T07:40:10.750Z,7.00
2018-03-14T07:42:39.375Z,7.00
2018-03-14T07:45:07.042Z,7.00
2018-03-14T07:47:34.841Z,7.00
2018-03-14T07:50:02.456Z,7.10
2018-03-14T07:52:30.270Z,7.10
2018-03-14T07:54:58.807Z,7.00
2018-03-14T07:57:26.626Z,7.10
2018-03-14T07:59:55.222Z,7.00
2018-03-14T08:02:22.830Z,7.00
2018-03-14T08:04:50.624Z,7.00
2018-03-14T08:07:18.481Z,6.90
2018-03-14T08:09:46.961Z,6.90
2018-03-14T08:12:14.996Z,6.90
2018-03-14T08:14:42.592Z,7.00
2018-03-14T08:17:10.178Z,7.30
2018-03-14T08:19:38.518Z,7.50
2018-03-14T08:22:06.069Z,7.40
2018-03-14T08:24:33.641Z,7.50
2018-03-14T08:27:01.230Z,7.40
2018-03-14T08:29:28.888Z,7.50
2018-03-14T08:31:56.426Z,7.50
2018-03-14T08:34:24.104Z,7.50
2018-03-14T08:36:51.955Z,7.50
2018-03-14T08:39:20.076Z,7.50
2018-03-14T08:41:47.854Z,7.50
2018-03-14T08:44:15.678Z,7.60
2018-03-14T08:46:44.055Z,7.60
2018-03-14T08:49:11.702Z,7.60
2018-03-14T08:51:39.557Z,7.90
2018-03-14T08:54:07.548Z,8.00
2018-03-14T08:56:36.187Z,8.10
2018-03-14T08:59:03.783Z,8.10
2018-03-14T09:01:31.482Z,8.30
2018-03-14T09:03:59.945Z,8.10
2018-03-14T09:06:27.970Z,8.10
2018-03-14T09:08:55.593Z,8.10
2018-03-14T09:11:24.314Z,7.90
2018-03-14T09:13:52.037Z,7.90
2018-03-14T09:16:20.484Z,7.70
2018-03-14T09:18:48.207Z,7.70
2018-03-14T09:21:15.957Z,7.60
2018-03-14T09:23:44.598Z,7.60
2018-03-14T09:26:12.748Z,7.60
2018-03-14T09:28:40.392Z,7.60
2018-03-14T09:31:08.214Z,7.70
2018-03-14T09:33:35.864Z,7.70
2018-03-14T09:36:03.524Z,7.70
2018-03-14T09:38:31.121Z,7.70
2018-03-14T09:40:58.790Z,7.80
2018-03-14T09:43:27.257Z,7.90
2018-03-14T09:45:54.813Z,7.90
2018-03-14T09:48:23.173Z,7.90
2018-03-14T09:50:50.785Z,7.80
2018-03-14T09:53:19.112Z,8.00
2018-03-14T09:55:46.718Z,8.00
2018-03-14T09:58:15.073Z,8.40
2018-03-14T10:00:42.759Z,8.40
2018-03-14T10:03:10.345Z,8.50
2018-03-14T10:05:38.009Z,8.60
2018-03-14T10:08:05.582Z,8.70
2018-03-14T10:10:33.201Z,8.80
2018-03-14T10:13:01.562Z,9.00
2018-03-14T10:15:29.121Z,8.90
2018-03-14T10:17:56.693Z,9.00
2018-03-14T10:20:25.045Z,9.00
2018-03-14T10:22:54.115Z,9.10
2018-03-14T10:25:21.693Z,9.10
2018-03-14T10:27:49.237Z,9.10
2018-03-14T10:30:16.817Z,9.10
2018-03-14T10:32:44.504Z,9.10
2018-03-14T10:35:12.126Z,9.20
2018-03-14T10:37:39.701Z,9.10
2018-03-14T10:40:07.275Z,9.20
2018-03-14T10:42:34.847Z,9.00
2018-03-14T10:45:03.185Z,8.60
2018-03-14T10:47:30.726Z,8.60
2018-03-14T10:49:58.312Z,8.80
2018-03-14T10:52:25.923Z,8.90
2018-03-14T10:54:54.384Z,9.20
2018-03-14T10:57:23.038Z,9.30
2018-03-14T10:59:51.083Z,9.30
2018-03-14T11:02:30.546Z,9.40
2018-03-14T11:04:58.495Z,9.40
2018-03-14T11:07:26.389Z,9.50
2018-03-14T11:09:54.030Z,9.60
2018-03-14T11:12:21.989Z,9.70
2018-03-14T11:14:49.594Z,9.80
2018-03-14T11:17:18.361Z,10.00
2018-03-14T11:19:46.037Z,10.00
2018-03-14T11:22:13.846Z,10.10
2018-03-14T11:24:41.620Z,10.00
2018-03-14T11:27:09.225Z,10.10
2018-03-14T11:29:36.789Z,10.40
2018-03-14T11:32:04.369Z,10.50
2018-03-14T11:34:32.695Z,11.00
2018-03-14T11:37:00.284Z,11.00
2018-03-14T11:39:27.849Z,10.90
2018-03-14T11:41:55.471Z,10.80
2018-03-14T11:44:23.026Z,10.80
2018-03-14T11:46:50.614Z,10.90
2018-03-14T11:49:18.194Z,10.80
2018-03-14T11:51:45.800Z,10.80
2018-03-14T11:54:13.373Z,10.70
2018-03-14T11:56:41.245Z,10.80
2018-03-14T11:59:08.814Z,10.70
2018-03-14T12:01:36.374Z,10.50
2018-03-14T12:04:04.036Z,10.50
2018-03-14T12:06:31.593Z,10.70
2018-03-14T12:08:59.212Z,10.90
2018-03-14T12:11:27.548Z,11.10
2018-03-14T12:13:55.230Z,11.10
2018-03-14T12:16:22.820Z,11.00
2018-03-14T12:18:51.197Z,11.10
2018-03-14T12:21:19.513Z,11.10
2018-03-14T12:23:47.104Z,11.10
2018-03-14T12:26:14.812Z,11.20
2018-03-14T12:28:42.431Z,11.00
2018-03-14T12:31:09.985Z,10.90
2018-03-14T12:33:37.550Z,10.70
2018-03-14T12:36:05.124Z,10.60
2018-03-14T12:38:32.715Z,10.50
2018-03-14T12:41:00.245Z,10.40
2018-03-14T12:43:28.572Z,10.50
2018-03-14T12:45:56.129Z,10.50
2018-03-14T12:48:23.688Z,10.60
2018-03-14T12:50:51.257Z,10.60
2018-03-14T12:53:18.827Z,10.60
2018-03-14T12:55:46.399Z,10.50
2018-03-14T12:58:13.957Z,10.60
2018-03-14T13:00:41.535Z,10.70
2018-03-14T13:03:09.088Z,10.70
2018-03-14T13:05:36.653Z,10.70
2018-03-14T13:08:04.201Z,10.70
2018-03-14T13:10:33.298Z,10.70
2018-03-14T13:13:00.846Z,10.70
2018-03-14T13:15:28.424Z,10.80
2018-03-14T13:17:56.009Z,10.90
2018-03-14T13:20:24.340Z,10.80
2018-03-14T13:22:51.901Z,10.80
2018-03-14T13:25:19.497Z,10.90
2018-03-14T13:27:47.104Z,10.80
2018-03-14T13:30:14.665Z,10.80
2018-03-14T13:32:42.250Z,10.80
2018-03-14T13:35:09.837Z,10.90
2018-03-14T13:37:37.402Z,11.00
2018-03-14T13:40:05.793Z,11.10
2018-03-14T13:42:33.321Z,11.10
2018-03-14T13:45:00.898Z,11.10
2018-03-14T13:47:28.473Z,11.10
2018-03-14T13:49:56.051Z,11.20
2018-03-14T13:52:23.678Z,11.30
2018-03-14T13:54:51.247Z,11.50
2018-03-14T13:57:18.845Z,11.80
2018-03-14T13:59:46.465Z,11.90
2018-03-14T14:02:14.801Z,12.30
2018-03-14T14:04:42.469Z,12.40
2018-03-14T14:07:10.037Z,12.50
2018-03-14T14:09:37.631Z,12.60
2018-03-14T14:12:05.952Z,12.90
2018-03-14T14:14:33.545Z,12.90
2018-03-14T14:17:01.112Z,13.10
2018-03-14T14:19:28.676Z,13.00
2018-03-14T14:21:56.245Z,13.20
2018-03-14T14:24:24.611Z,13.20
2018-03-14T14:26:52.160Z,13.20
2018-03-14T14:29:19.726Z,13.20
2018-03-14T14:31:47.265Z,13.10
2018-03-14T14:34:14.849Z,13.00
2018-03-14T14:36:42.403Z,13.10
2018-03-14T14:39:09.949Z,13.10
2018-03-14T14:41:37.678Z,13.10
2018-03-14T14:44:05.160Z,13.10
2018-03-14T14:46:32.736Z,12.90
2018-03-14T14:49:00.300Z,12.80
2018-03-14T14:51:27.863Z,12.80
2018-03-14T14:53:55.431Z,12.80
2018-03-14T14:56:23.788Z,12.80
2018-03-14T14:58:51.341Z,12.80
2018-03-14T15:01:18.921Z,12.80
2018-03-14T15:03:46.484Z,12.70
2018-03-14T15:06:14.056Z,12.70
2018-03-14T15:08:41.603Z,12.70
2018-03-14T15:11:09.172Z,12.70
2018-03-14T15:13:36.784Z,12.80
2018-03-14T15:16:04.346Z,12.80
2018-03-14T15:18:31.929Z,12.80
2018-03-14T15:20:59.508Z,12.80
2018-03-14T15:23:27.238Z,12.70
2018-03-14T15:25:54.806Z,12.50
2018-03-14T15:28:22.373Z,12.40
2018-03-14T15:30:49.947Z,12.40
2018-03-14T15:33:17.575Z,12.30
2018-03-14T15:35:45.141Z,12.20
2018-03-14T15:38:12.713Z,12.20
2018-03-14T15:40:40.307Z,12.10
2018-03-14T15:43:07.829Z,12.20
2018-03-14T15:45:35.401Z,12.00
2018-03-14T15:48:02.970Z,11.90
2018-03-14T15:50:30.529Z,11.90
2018-03-14T15:52:58.119Z,11.90
2018-03-14T15:55:26.529Z,11.80
2018-03-14T15:57:54.105Z,11.80
2018-03-14T16:00:21.673Z,11.70
2018-03-14T16:02:49.248Z,11.80
2018-03-14T16:05:16.822Z,11.70
2018-03-14T16:07:44.401Z,11.70
2018-03-14T16:10:12.725Z,11.80
2018-03-14T16:12:40.279Z,11.70
2018-03-14T16:15:07.853Z,11.70
2018-03-14T16:17:35.438Z,11.70
2018-03-14T16:20:03.075Z,11.60
2018-03-14T16:22:31.362Z,11.60
2018-03-14T16:24:58.942Z,11.50
2018-03-14T16:27:26.492Z,11.60
2018-03-14T16:29:54.061Z,11.50
2018-03-14T16:32:21.605Z,11.50
2018-03-14T16:34:49.760Z,11.50
2018-03-14T16:37:17.297Z,11.40
2018-03-14T16:39:44.865Z,11.40
2018-03-14T16:42:12.425Z,11.30
2018-03-14T16:44:40.059Z,11.20
2018-03-14T16:47:07.596Z,11.20
2018-03-14T16:49:35.155Z,11.10
2018-03-14T16:52:02.714Z,11.00
2018-03-14T16:54:30.315Z,11.00
2018-03-14T16:56:58.002Z,11.00
2018-03-14T16:59:25.589Z,10.90
2018-03-14T17:01:53.173Z,10.90
2018-03-14T17:04:21.525Z,10.80
2018-03-14T17:06:49.173Z,10.80
2018-03-14T17:09:16.745Z,10.70
2018-03-14T17:11:44.303Z,10.60
2018-03-14T17:14:11.936Z,10.60
2018-03-14T17:16:39.514Z,10.60
2018-03-14T17:19:07.368Z,10.50
2018-03-14T17:21:34.983Z,10.40
2018-03-14T17:24:03.292Z,10.30
2018-03-14T17:26:31.124Z,10.30
2018-03-14T17:28:58.616Z,10.20
2018-03-14T17:31:26.217Z,10.10
2018-03-14T17:33:54.014Z,10.00
2018-03-14T17:36:22.407Z,9.80
2018-03-14T17:38:49.969Z,9.80
2018-03-14T17:41:18.338Z,9.80
2018-03-14T17:43:46.782Z,9.80
2018-03-14T17:46:14.490Z,9.70
2018-03-14T17:48:42.074Z,9.70
2018-03-14T17:51:09.683Z,9.60
2018-03-14T17:53:37.233Z,9.50
2018-03-14T17:56:04.862Z,9.50
2018-03-14T17:58:32.574Z,9.40
2018-03-14T18:01:00.181Z,9.40
2018-03-14T18:03:28.769Z,9.30
2018-03-14T18:05:57.000Z,9.30
2018-03-14T18:08:24.670Z,9.20
2018-03-14T18:10:54.262Z,9.20
2018-03-14T18:13:24.862Z,9.20
2018-03-14T18:15:52.450Z,9.20
2018-03-14T18:18:20.050Z,9.10
2018-03-14T18:20:47.668Z,9.10
2018-03-14T18:23:16.248Z,9.00
2018-03-14T18:25:43.833Z,9.00
2018-03-14T18:28:12.365Z,8.80
2018-03-14T18:30:40.733Z,8.80
2018-03-14T18:33:09.250Z,8.80
2018-03-14T18:35:36.826Z,8.70
2018-03-14T18:38:05.182Z,8.60
2018-03-14T18:40:32.803Z,8.60
2018-03-14T18:43:00.873Z,8.60
2018-03-14T18:45:28.454Z,8.60
2018-03-14T18:47:56.112Z,8.60
2018-03-14T18:50:23.691Z,8.50
2018-03-14T18:52:51.244Z,8.50
2018-03-14T18:55:18.841Z,8.50
2018-03-14T18:57:46.788Z,8.50
2018-03-14T19:00:14.373Z,8.40
2018-03-14T19:02:42.697Z,8.30
2018-03-14T19:05:10.273Z,8.30
2018-03-14T19:07:37.834Z,8.20
2018-03-14T19:10:06.227Z,8.20
2018-03-14T19:12:33.986Z,8.10
2018-03-14T19:15:01.580Z,8.10
2018-03-14T19:17:29.911Z,8.10
2018-03-14T19:19:59.553Z,8.00
2018-03-14T19:22:29.020Z,8.10
2018-03-14T19:24:57.468Z,8.10
2018-03-14T19:27:25.059Z,8.10
2018-03-14T19:29:52.630Z,8.00
2018-03-14T19:32:20.280Z,8.00
2018-03-14T19:34:47.917Z,8.00
2018-03-14T19:37:17.168Z,8.00
2018-03-14T19:39:44.748Z,8.00
2018-03-14T19:42:13.101Z,8.00
2018-03-14T19:44:40.705Z,8.00
2018-03-14T19:47:09.058Z,7.90
2018-03-14T19:49:36.605Z,7.90
2018-03-14T19:52:04.169Z,7.90
2018-03-14T19:54:31.760Z,7.90
2018-03-14T19:57:00.210Z,7.90
2018-03-14T19:59:27.824Z,7.80
2018-03-14T20:01:56.445Z,7.80
2018-03-14T20:04:24.027Z,7.80
2018-03-14T20:06:51.650Z,7.60
2018-03-14T20:09:20.073Z,7.60
2018-03-14T20:11:47.641Z,7.60
2018-03-14T20:14:16.011Z,7.60
2018-03-14T20:16:43.580Z,7.60
2018-03-14T20:19:11.981Z,7.60
2018-03-14T20:21:39.691Z,7.60
2018-03-14T20:24:07.327Z,7.60
2018-03-14T20:26:34.910Z,7.50
2018-03-14T20:29:03.805Z,7.50
2018-03-14T20:31:32.204Z,7.40
2018-03-14T20:33:59.778Z,7.40
2018-03-14T20:36:28.128Z,7.40
2018-03-14T20:38:55.737Z,7.40
2018-03-14T20:41:23.352Z,7.30
2018-03-14T20:43:50.970Z,7.30
2018-03-14T20:46:20.246Z,7.30
2018-03-14T20:48:47.873Z,7.30
2018-03-14T20:51:15.473Z,7.30
2018-03-14T20:53:43.850Z,7.20
2018-03-14T20:56:11.572Z,7.20
2018-03-14T20:58:39.879Z,7.20
2018-03-14T21:01:08.340Z,7.00
2018-03-14T21:03:35.927Z,7.00
2018-03-14T21:08:38.357Z,7.00
2018-03-14T21:11:05.975Z,7.10
2018-03-14T21:13:34.798Z,7.00
2018-03-14T21:16:06.407Z,7.00
2018-03-14T21:18:33.970Z,6.90
2018-03-14T21:21:01.558Z,6.90
2018-03-14T21:23:29.231Z,6.90
2018-03-14T21:25:58.059Z,6.80
2018-03-14T21:28:26.654Z,6.80
2018-03-14T21:30:54.211Z,6.70
2018-03-14T21:33:21.800Z,6.80
2018-03-14T21:35:50.816Z,6.70
2018-03-14T21:38:18.425Z,6.70
2018-03-14T21:40:45.963Z,6.70
2018-03-14T21:43:13.753Z,6.70
2018-03-14T21:45:41.387Z,6.60
2018-03-14T21:48:08.949Z,6.60
2018-03-14T21:50:38.185Z,6.60
2018-03-14T21:53:05.824Z,6.50
2018-03-14T21:55:39.435Z,6.50
2018-03-14T21:58:07.020Z,6.50
2018-03-14T22:00:35.522Z,6.50
2018-03-14T22:03:03.166Z,6.50
2018-03-14T22:05:31.799Z,6.50
2018-03-14T22:08:00.722Z,6.40
2018-03-14T22:10:28.298Z,6.40
2018-03-14T22:12:56.665Z,6.50
2018-03-14T22:15:25.086Z,6.40
2018-03-14T22:17:52.682Z,6.40
2018-03-14T22:20:20.273Z,6.40
2018-03-14T22:22:48.617Z,6.30
2018-03-14T22:25:16.350Z,6.30
2018-03-14T22:27:43.897Z,6.30
2018-03-14T22:30:12.250Z,6.30
2018-03-14T22:32:41.335Z,6.30
2018-03-14T22:35:09.726Z,6.20
2018-03-14T22:37:37.273Z,6.30
2018-03-14T22:40:04.841Z,6.20
2018-03-14T22:42:32.499Z,6.20
2018-03-14T22:45:00.086Z,6.10
2018-03-14T22:47:28.288Z,6.10
2018-03-14T22:49:55.842Z,6.10
2018-03-14T22:52:23.422Z,6.10
2018-03-14T22:54:50.966Z,6.00
2018-03-14T22:57:18.530Z,6.00
2018-03-14T22:59:46.098Z,5.90
2018-03-14T23:02:13.681Z,5.90
2018-03-14T23:04:41.246Z,5.90
2018-03-14T23:07:08.798Z,5.80
2018-03-14T23:09:36.347Z,5.80
2018-03-14T23:12:03.918Z,5.80
2018-03-14T23:14:31.474Z,5.80
2018-03-14T23:16:59.040Z,5.80
2018-03-14T23:19:26.597Z,5.80
2018-03-14T23:21:54.200Z,5.70
2018-03-14T23:24:21.763Z,5.70
2018-03-14T23:26:49.368Z,5.70
2018-03-14T23:29:16.932Z,5.60
2018-03-14T23:31:44.525Z,5.60
2018-03-14T23:34:12.953Z,5.60
2018-03-14T23:36:40.541Z,5.50
2018-03-14T23:39:08.105Z,5.60
2018-03-14T23:41:35.677Z,5.60
2018-03-14T23:44:03.240Z,5.60
2018-03-14T23:46:31.554Z,5.50
2018-03-14T23:48:59.139Z,5.50
2018-03-14T23:51:26.687Z,5.50
2018-03-14T23:53:54.249Z,5.50
2018-03-14T23:56:21.821Z,5.50
2018-03-14T23:58:49.994Z,5.50
